LTACLTCC

Guest
Details From LTAC - ESENBOGA
To LTCC - DIYARBAKIR
Flight Number -
Tags generated
Created
Modified
Stats Distance 363 nm / 672 km
Max Altitude 35,000 ft / 10,668 m
Waypoints 6
Social Downloads 0
Likes 0
Share VATSIM

Download

Looking for another format? Having issues loading an existing format? Contact us
Advertisement - Login to hide

Notes

Basic altitude profile: - Ascent Rate: 2500ft/min - Ascent Speed: 250kts - Cruise Altitude: 35000ft - Cruise Speed: 420kts - Descent Rate: 1500ft/min - Descent Speed: 250kts Options: - Use NATs: yes - Use PACOTS: yes - Use low airways: yes - Use high airways: yes

Route

LTAC KUBER G8 MARTI UG8 GEM UW73 ERH LTCC

ID Type Via Altitude Latitude Longitude Leg Dist Tot Dist Heading (true) Name
O LTAC APT - 0 ft / 0 m 40.12828˚ 32.99540˚ - 0 nm - ESENBOGA
KUBER FIX - 11,900 ft / 3,627 m 39.83333˚ 33.61111˚ 33 nm 33 nm 122° / 122° -
MARTI FIX G8 (AWY-LO) 27,500 ft / 8,382 m 39.40167˚ 35.18278˚ 77 nm 110 nm 109° / 110° -
GEM VOR UG8 (AWY-HI) 35,000 ft / 10,668 m 39.15528˚ 36.02917˚ 42 nm 152 nm 110° / 111° GEMEREK VOR-DME
ERH NDB UW73 (AWY-HI) 27,500 ft / 8,382 m 38.46333˚ 38.11222˚ 105 nm 258 nm 112° / 114° ERHAC NDB
O LTCC APT - 0 ft / 0 m 37.89390˚ 40.20102˚ 104 nm 362 nm 108° / 110° DIYARBAKIR

Altitude Profile

Advertisement - Login to hide

Weather


0- 5 10 15 20 25 30 35+ Temperature / ° C

Clouds and Precipitation
Forecast for 2017-12-13 18:00 UTC. Updated 10 minutes ago

Ground ~20,000 ft ~40,000 ft Winds

LTAC

Details ICAO LTAC (ESB)
Name ESENBOGA
Region Turkey
Timezone Europe/Istanbul (UTC+3.0)
Stats Elevation 3,125 ft / 953 m (AMSL)
Location 40.128285° 32.995403°
Runways 2
Magnetic Variation 5.713° E

METAR

LTAC 131520Z 17004KT 140V200 9000 FEW040 08/03 Q1019 NOSIG

Decode

TAF

Not found

Departure Runways

ID Width Length Bearing (true) Bearing (mag) Surface Threshold Offset Overrun Length
03L 148 ft / 45 m 12,334 ft / 3,760 m 36.19° 30.48° Asphalt 1,148 ft / 350 m 200 ft / 61 m
03R 197 ft / 60 m 12,258 ft / 3,736 m 35.29° 29.58° Asphalt 0 ft / 0 m 200 ft / 61 m
21L 197 ft / 60 m 12,258 ft / 3,736 m 215.31° 209.60° Asphalt 0 ft / 0 m 200 ft / 61 m
21R 148 ft / 45 m 12,334 ft / 3,760 m 216.21° 210.50° Asphalt 0 ft / 0 m 200 ft / 61 m

LTCC

Details ICAO LTCC (DIY)
Name DIYARBAKIR
Region Turkey
Timezone Europe/Istanbul (UTC+3.0)
Stats Elevation 2,251 ft / 686 m (AMSL)
Location 37.893898° 40.201017°
Runways 1
Magnetic Variation 5.639° E

METAR

LTCC 131520Z 13004KT CAVOK 07/M01 Q1018 NOSIG

Decode

TAF

Not found

Destination Runways

ID Width Length Bearing (true) Bearing (mag) Surface Threshold Offset Overrun Length
16 148 ft / 45 m 11,663 ft / 3,555 m 162.66° 157.02° Concrete 0 ft / 0 m 507 ft / 155 m
34 148 ft / 45 m 11,663 ft / 3,555 m 342.67° 337.03° Concrete 0 ft / 0 m 495 ft / 151 m

Popular Alternatives